Time;durP1;ratioP1;P1;durP2;ratioP2;P2;SDS_P1;SDS_P2;PMS_P1;PMS_P2;Temp;Humidity;BMP_temperature;BMP_pressure;BME280_temperature;BME280_humidity;BME280_pressure;Samples;Min_cycle;Max_cycle;Signal;HPM_P1;HPM_P2
2022/07/08 00:00:49;;;;;;;5.53;1.30;;;14.50;99.90;;;;;;4993729;28;20218;-63
2022/07/08 00:03:18;;;;;;;7.47;1.57;;;14.50;99.90;;;;;;4993577;28;20216;-63
2022/07/08 00:05:45;;;;;;;3.83;1.37;;;14.60;99.90;;;;;;4993385;28;20264;-64
2022/07/08 00:08:12;;;;;;;6.70;1.40;;;14.60;99.90;;;;;;4992766;28;20234;-63
2022/07/08 00:10:38;;;;;;;6.87;1.50;;;14.60;99.90;;;;;;4993367;28;20342;-63
2022/07/08 00:13:05;;;;;;;5.40;1.57;;;14.60;99.90;;;;;;4993390;28;20211;-64
2022/07/08 00:15:33;;;;;;;5.90;1.43;;;14.60;99.90;;;;;;4993214;28;20278;-64
2022/07/08 00:17:59;;;;;;;6.30;1.53;;;14.60;99.90;;;;;;4992687;28;20784;-63
2022/07/08 00:20:26;;;;;;;7.93;1.60;;;14.60;99.90;;;;;;4993306;28;20257;-63
2022/07/08 00:22:53;;;;;;;4.77;1.27;;;14.50;99.90;;;;;;4992973;28;20215;-63
2022/07/08 00:25:19;;;;;;;6.53;1.77;;;14.50;99.90;;;;;;4992990;28;20219;-63
2022/07/08 00:27:46;;;;;;;7.20;1.60;;;14.50;99.90;;;;;;4992647;28;20277;-64
2022/07/08 00:30:13;;;;;;;4.23;1.13;;;14.50;99.90;;;;;;4992937;28;20250;-63
2022/07/08 00:32:41;;;;;;;6.13;1.60;;;14.50;99.90;;;;;;4992918;28;20265;-63
2022/07/08 00:35:09;;;;;;;3.53;1.50;;;14.50;99.90;;;;;;4992827;28;20298;-63
2022/07/08 00:37:35;;;;;;;4.30;2.03;;;14.60;99.90;;;;;;4992412;28;20227;-63
2022/07/08 00:40:02;;;;;;;6.53;1.63;;;14.40;99.90;;;;;;4992624;28;20211;-63
2022/07/08 00:42:29;;;;;;;3.57;1.40;;;14.40;99.90;;;;;;4992991;28;20284;-63
2022/07/08 00:44:56;;;;;;;6.53;1.50;;;14.40;99.90;;;;;;4992663;28;20210;-63
2022/07/08 00:47:22;;;;;;;6.90;1.60;;;14.40;99.90;;;;;;4992382;28;20238;-63
2022/07/08 00:49:52;;;;;;;5.83;1.67;;;14.40;99.90;;;;;;4992641;28;20207;-64
2022/07/08 00:52:19;;;;;;;4.40;1.57;;;14.50;99.90;;;;;;4992560;28;20269;-64
2022/07/08 00:54:45;;;;;;;7.80;1.97;;;14.60;99.90;;;;;;4992829;28;20258;-64
2022/07/08 00:57:13;;;;;;;5.90;1.70;;;14.60;99.90;;;;;;4992523;28;20299;-64
2022/07/08 00:59:40;;;;;;;5.77;1.83;;;14.50;99.90;;;;;;4992772;28;20210;-65
2022/07/08 01:02:06;;;;;;;8.67;1.67;;;14.40;99.90;;;;;;4992742;28;20211;-63
2022/07/08 01:04:33;;;;;;;8.80;1.53;;;14.50;99.90;;;;;;4992619;28;20207;-63
2022/07/08 01:07:01;;;;;;;6.17;1.50;;;14.40;99.90;;;;;;4991901;28;20204;-63
2022/07/08 01:09:28;;;;;;;4.53;1.40;;;14.50;99.90;;;;;;4992681;28;20211;-64
2022/07/08 01:11:55;;;;;;;3.67;1.40;;;14.40;99.90;;;;;;4992226;28;20678;-63
2022/07/08 01:14:21;;;;;;;8.73;1.80;;;14.40;99.90;;;;;;4992615;28;20230;-64
2022/07/08 01:16:48;;;;;;;7.50;1.67;;;14.30;99.90;;;;;;4997360;28;20242;-63
2022/07/08 01:19:15;;;;;;;5.70;1.53;;;14.30;99.90;;;;;;5001130;28;20230;-63
2022/07/08 01:21:43;;;;;;;4.20;1.27;;;14.30;99.90;;;;;;4998877;28;20634;-64
2022/07/08 01:24:09;;;;;;;5.97;1.97;;;14.30;99.90;;;;;;4992555;28;20211;-64
2022/07/08 01:26:36;;;;;;;7.03;1.80;;;14.30;99.90;;;;;;4992167;28;20842;-63
2022/07/08 01:29:03;;;;;;;4.33;1.30;;;14.40;99.90;;;;;;4992235;28;20281;-63
2022/07/08 01:31:30;;;;;;;8.80;2.03;;;14.40;99.90;;;;;;4992437;28;20745;-65
2022/07/08 01:33:56;;;;;;;3.60;1.50;;;14.30;99.90;;;;;;4992119;28;20776;-62
2022/07/08 01:36:24;;;;;;;4.93;1.50;;;14.20;99.90;;;;;;4992076;28;20211;-64
2022/07/08 01:38:52;;;;;;;4.77;1.50;;;14.30;99.90;;;;;;4992284;28;20246;-64
2022/07/08 01:41:19;;;;;;;4.70;1.33;;;14.30;99.90;;;;;;4992275;28;20678;-63
2022/07/08 01:43:45;;;;;;;5.80;1.53;;;14.30;99.90;;;;;;4992285;28;20210;-64
2022/07/08 01:46:12;;;;;;;3.27;1.50;;;14.30;99.90;;;;;;4991742;28;20212;-64
2022/07/08 01:48:39;;;;;;;6.70;1.50;;;14.30;99.90;;;;;;4991919;28;20258;-64
2022/07/08 01:51:05;;;;;;;5.87;1.57;;;14.20;99.90;;;;;;4992305;28;20208;-63
2022/07/08 01:53:32;;;;;;;5.70;2.90;;;14.30;99.90;;;;;;4992593;28;20208;-64
2022/07/08 01:56:00;;;;;;;3.67;1.63;;;14.30;99.90;;;;;;4992048;28;20234;-64
2022/07/08 01:58:27;;;;;;;5.20;1.50;;;14.20;99.90;;;;;;4991964;28;20241;-62
2022/07/08 02:00:54;;;;;;;8.03;2.17;;;14.30;99.90;;;;;;4991804;28;20222;-64
2022/07/08 02:03:21;;;;;;;3.63;1.70;;;14.30;99.90;;;;;;4992193;28;20218;-63
2022/07/08 02:05:47;;;;;;;5.73;1.60;;;14.30;99.90;;;;;;4993036;28;20274;-63
2022/07/08 02:08:14;;;;;;;7.50;2.43;;;14.30;99.90;;;;;;4995299;28;20231;-64
2022/07/08 02:13:26;;;;;;;6.00;1.73;;;14.20;99.90;;;;;;4995442;28;20238;-64
2022/07/08 02:15:53;;;;;;;6.67;1.93;;;14.20;99.90;;;;;;4995119;28;20230;-63
2022/07/08 02:18:20;;;;;;;8.37;1.90;;;14.20;99.90;;;;;;4995388;28;20230;-64
2022/07/08 02:20:46;;;;;;;9.40;2.40;;;14.10;99.90;;;;;;4995318;28;20262;-64
2022/07/08 02:23:13;;;;;;;6.43;1.67;;;14.10;1.00;;;;;;4995441;28;20729;-64
2022/07/08 02:25:40;;;;;;;6.27;2.00;;;14.00;1.00;;;;;;4995193;28;20203;-64
2022/07/08 02:28:06;;;;;;;6.67;1.60;;;14.00;1.00;;;;;;4994812;28;20305;-64
2022/07/08 02:30:34;;;;;;;6.30;1.73;;;14.00;1.00;;;;;;4995216;28;20237;-64
2022/07/08 02:33:01;;;;;;;10.03;1.80;;;14.00;1.00;;;;;;4995217;28;20740;-64
2022/07/08 02:35:28;;;;;;;11.40;2.27;;;14.00;1.00;;;;;;4994864;28;20881;-64
2022/07/08 02:37:54;;;;;;;6.07;1.80;;;14.00;1.00;;;;;;4994816;28;20236;-64
2022/07/08 02:40:21;;;;;;;9.60;1.67;;;14.10;1.00;;;;;;4995202;28;20207;-64
2022/07/08 02:42:48;;;;;;;7.40;1.87;;;14.00;1.00;;;;;;4995024;28;20242;-64
2022/07/08 02:45:15;;;;;;;8.43;1.80;;;14.00;6.40;;;;;;4995083;28;20269;-64
2022/07/08 02:47:42;;;;;;;6.07;1.90;;;14.00;1.00;;;;;;4994533;28;20253;-64
2022/07/08 02:50:10;;;;;;;5.40;1.80;;;14.00;14.40;;;;;;4994886;28;20210;-64
2022/07/08 02:52:36;;;;;;;5.77;1.73;;;14.00;85.60;;;;;;4994703;28;20285;-63
2022/07/08 02:55:04;;;;;;;7.63;1.93;;;13.90;99.90;;;;;;4994648;28;20319;-64
2022/07/08 02:57:30;;;;;;;9.03;2.37;;;14.00;99.90;;;;;;4994412;28;20235;-64
2022/07/08 02:59:57;;;;;;;5.93;1.83;;;14.00;99.90;;;;;;4994650;28;20215;-64
2022/07/08 03:02:24;;;;;;;4.80;1.60;;;14.00;99.90;;;;;;4994746;28;20258;-64
2022/07/08 03:04:53;;;;;;;5.93;2.00;;;13.90;1.00;;;;;;4994309;28;20250;-64
2022/07/08 03:07:20;;;;;;;8.87;2.10;;;13.90;50.60;;;;;;4993939;28;20710;-64
2022/07/08 03:09:47;;;;;;;6.27;1.67;;;14.00;20.20;;;;;;4994457;28;20767;-64
2022/07/08 03:12:13;;;;;;;8.17;1.97;;;13.90;1.00;;;;;;4994324;28;20631;-65
2022/07/08 03:14:40;;;;;;;5.30;1.60;;;13.90;1.00;;;;;;4994364;28;20215;-65
2022/07/08 03:17:06;;;;;;;11.37;1.77;;;13.90;1.00;;;;;;4992909;28;20756;-64
2022/07/08 03:19:33;;;;;;;5.43;1.70;;;13.90;1.00;;;;;;4994348;28;20218;-64
2022/07/08 03:22:01;;;;;;;3.77;1.50;;;13.90;1.00;;;;;;4994023;28;20211;-63
2022/07/08 03:24:29;;;;;;;6.00;1.40;;;13.90;1.00;;;;;;4994255;28;20248;-64
2022/07/08 03:26:55;;;;;;;8.53;1.57;;;13.90;1.00;;;;;;4994020;28;20211;-63
2022/07/08 03:29:22;;;;;;;7.07;1.50;;;14.00;1.00;;;;;;4994076;28;20233;-66
2022/07/08 03:31:49;;;;;;;4.93;1.70;;;14.00;1.00;;;;;;4994028;28;20209;-64
2022/07/08 03:34:15;;;;;;;5.70;1.33;;;14.00;1.00;;;;;;4993872;28;20281;-63
2022/07/08 03:36:42;;;;;;;4.43;1.80;;;14.00;1.00;;;;;;4993314;28;20223;-64
2022/07/08 03:39:11;;;;;;;7.47;1.73;;;14.00;1.00;;;;;;4993658;28;20293;-64
2022/07/08 03:41:36;;;;;;;4.37;1.50;;;13.90;1.00;;;;;;4994039;28;20211;-64
2022/07/08 03:44:03;;;;;;;10.07;2.00;;;13.90;23.30;;;;;;4993765;28;20960;-64
2022/07/08 03:46:30;;;;;;;7.70;2.10;;;13.90;99.90;;;;;;4993323;28;20203;-64
2022/07/08 03:48:57;;;;;;;4.77;1.63;;;13.80;1.00;;;;;;4993772;28;20253;-64
2022/07/08 03:51:24;;;;;;;9.50;1.87;;;13.80;99.90;;;;;;4993462;28;20211;-64
2022/07/08 03:53:51;;;;;;;6.47;1.70;;;13.80;1.00;;;;;;4993833;28;20272;-64
2022/07/08 03:56:19;;;;;;;4.40;2.07;;;13.80;99.90;;;;;;4993227;28;20235;-64
2022/07/08 03:58:46;;;;;;;10.50;2.20;;;13.70;31.60;;;;;;4993555;28;20299;-64
2022/07/08 04:01:12;;;;;;;5.03;1.80;;;13.70;99.90;;;;;;4993642;28;20211;-63
2022/07/08 04:03:39;;;;;;;6.37;2.00;;;13.80;1.00;;;;;;4993578;28;20215;-63
2022/07/08 04:06:06;;;;;;;11.17;2.50;;;13.90;56.60;;;;;;4992911;28;20246;-64
2022/07/08 04:08:33;;;;;;;6.60;2.53;;;14.00;14.50;;;;;;4993782;28;20278;-63
2022/07/08 04:11:00;;;;;;;6.97;1.97;;;14.00;65.60;;;;;;4993358;28;20219;-64
2022/07/08 04:13:28;;;;;;;11.73;2.37;;;14.00;90.00;;;;;;4993277;28;20671;-63
2022/07/08 04:15:55;;;;;;;6.73;1.93;;;14.00;99.90;;;;;;4992735;28;20231;-63
2022/07/08 04:18:22;;;;;;;5.80;2.03;;;14.00;1.00;;;;;;4991963;28;20234;-63
2022/07/08 04:20:49;;;;;;;8.93;1.70;;;14.00;1.00;;;;;;5005498;28;20580;-63
2022/07/08 04:23:16;;;;;;;9.50;2.07;;;14.00;99.90;;;;;;4993034;28;20245;-64
2022/07/08 04:25:42;;;;;;;6.67;2.13;;;14.00;99.90;;;;;;4993156;28;20207;-65
2022/07/08 04:28:09;;;;;;;2.70;1.50;;;13.90;99.90;;;;;;4992103;28;20247;-64
2022/07/08 04:30:37;;;;;;;6.50;1.83;;;13.90;99.90;;;;;;4993081;28;20208;-65
2022/07/08 04:33:04;;;;;;;6.27;1.93;;;13.80;99.90;;;;;;4992609;28;20210;-65
2022/07/08 04:35:30;;;;;;;6.50;1.80;;;13.90;99.90;;;;;;5011543;28;20662;-64
2022/07/08 04:37:57;;;;;;;10.87;2.30;;;13.90;1.00;;;;;;5011740;28;20233;-63
2022/07/08 04:40:24;;;;;;;5.97;1.57;;;13.90;1.00;;;;;;5012735;28;20206;-64
2022/07/08 04:42:50;;;;;;;7.73;2.00;;;14.00;99.90;;;;;;5012777;28;20210;-64
2022/07/08 04:45:17;;;;;;;4.07;1.77;;;14.10;1.00;;;;;;5012506;28;20677;-64
2022/07/08 04:47:51;;;;;;;8.83;2.00;;;14.10;99.90;;;;;;5012773;28;20229;-64
2022/07/08 04:50:17;;;;;;;5.77;1.90;;;14.20;99.90;;;;;;5013392;28;20261;-64
2022/07/08 04:52:44;;;;;;;6.17;1.80;;;14.20;1.00;;;;;;5012790;28;20269;-64
2022/07/08 04:55:27;;;;;;;8.87;1.87;;;14.20;99.90;;;;;;5011859;28;20257;-64
2022/07/08 04:57:54;;;;;;;6.53;1.87;;;14.20;1.00;;;;;;5011742;28;20317;-64
2022/07/08 05:00:20;;;;;;;7.83;1.93;;;14.20;99.90;;;;;;5011883;28;20221;-64
2022/07/08 05:02:49;;;;;;;5.43;1.50;;;14.20;99.90;;;;;;5012359;28;20257;-64
2022/07/08 05:05:16;;;;;;;5.00;1.97;;;14.20;99.90;;;;;;5012224;28;20224;-63
2022/07/08 05:07:42;;;;;;;11.27;2.40;;;14.30;1.00;;;;;;5011992;28;20234;-65
2022/07/08 05:10:09;;;;;;;8.93;2.70;;;14.30;1.00;;;;;;5012013;28;20677;-64
2022/07/08 05:12:36;;;;;;;6.23;1.87;;;14.50;99.90;;;;;;5011623;28;20756;-63
2022/07/08 05:15:03;;;;;;;9.57;1.73;;;14.50;99.90;;;;;;5011589;28;20739;-63
2022/07/08 05:17:29;;;;;;;6.03;1.80;;;14.40;1.00;;;;;;5011069;28;20321;-66
2022/07/08 05:19:57;;;;;;;6.90;1.77;;;14.50;1.00;;;;;;4995358;28;20677;-66
2022/07/08 05:22:24;;;;;;;6.20;1.80;;;14.50;1.00;;;;;;4991847;28;20681;-62
2022/07/08 05:24:51;;;;;;;8.43;1.93;;;14.50;99.90;;;;;;4992437;28;20245;-62
2022/07/08 05:27:17;;;;;;;5.43;1.87;;;14.70;36.10;;;;;;4991655;28;20246;-62
2022/07/08 05:29:44;;;;;;;12.07;1.63;;;14.70;1.00;;;;;;4992269;28;20653;-62
2022/07/08 05:32:11;;;;;;;5.63;1.53;;;14.70;99.90;;;;;;4992429;28;20582;-62
2022/07/08 05:34:38;;;;;;;12.43;1.80;;;14.80;99.90;;;;;;4991885;28;20741;-61
2022/07/08 05:37:06;;;;;;;10.03;2.27;;;14.90;99.90;;;;;;5006278;28;20258;-61
2022/07/08 05:39:33;;;;;;;4.97;1.70;;;15.00;1.00;;;;;;4993945;28;20261;-64
2022/07/08 05:41:59;;;;;;;6.17;2.20;;;15.00;99.90;;;;;;5013741;28;20233;-64
2022/07/08 05:44:26;;;;;;;7.47;1.70;;;14.90;99.90;;;;;;5014823;28;20206;-63
2022/07/08 05:46:53;;;;;;;5.27;2.07;;;15.00;99.90;;;;;;5014112;28;20575;-63
2022/07/08 05:49:19;;;;;;;8.53;2.00;;;15.20;99.90;;;;;;5013927;28;20273;-65
2022/07/08 05:51:46;;;;;;;6.40;1.63;;;15.10;20.30;;;;;;5010154;28;20611;-64
2022/07/08 05:54:14;;;;;;;6.73;1.80;;;15.20;1.00;;;;;;4995057;28;20262;-63
2022/07/08 05:56:41;;;;;;;3.73;1.30;;;15.30;1.00;;;;;;4994749;28;20290;-63
2022/07/08 05:59:08;;;;;;;3.97;1.60;;;15.50;1.00;;;;;;5006364;28;20362;-65
2022/07/08 06:01:34;;;;;;;5.20;1.70;;;15.70;99.90;;;;;;5014557;28;20218;-63
2022/07/08 06:04:01;;;;;;;6.23;1.67;;;15.80;99.90;;;;;;5014489;28;20257;-62
2022/07/08 06:06:27;;;;;;;2.67;1.13;;;15.90;99.90;;;;;;5014371;28;20814;-63
2022/07/08 06:08:54;;;;;;;6.63;1.67;;;16.00;99.90;;;;;;5014071;28;20226;-62
2022/07/08 06:11:22;;;;;;;8.53;1.80;;;15.90;99.90;;;;;;5014746;28;20210;-62
2022/07/08 06:13:50;;;;;;;6.47;1.37;;;15.80;99.90;;;;;;5014573;28;20206;-62
2022/07/08 06:16:20;;;;;;;5.07;1.90;;;15.80;99.90;;;;;;5009258;28;20786;-64
2022/07/08 06:18:46;;;;;;;6.97;1.60;;;15.90;99.90;;;;;;5014507;28;20269;-63
2022/07/08 06:21:13;;;;;;;4.53;1.80;;;16.00;99.90;;;;;;5013864;28;20251;-65
2022/07/08 06:23:40;;;;;;;5.87;1.77;;;15.90;99.90;;;;;;4997894;28;20606;-66
2022/07/08 06:26:06;;;;;;;5.90;1.67;;;15.90;99.90;;;;;;4994178;28;20204;-65
2022/07/08 06:28:34;;;;;;;5.97;2.00;;;16.10;99.90;;;;;;4994801;28;20248;-64
2022/07/08 06:31:01;;;;;;;9.47;2.20;;;16.20;99.90;;;;;;4994470;28;20234;-64
2022/07/08 06:33:28;;;;;;;3.90;1.80;;;16.30;99.90;;;;;;4994290;28;20254;-62
2022/07/08 06:35:54;;;;;;;5.77;1.97;;;16.30;99.90;;;;;;4994459;28;20625;-62
2022/07/08 06:38:21;;;;;;;5.00;1.70;;;16.30;99.90;;;;;;4994081;28;20286;-64
2022/07/08 06:40:48;;;;;;;8.23;1.80;;;16.40;99.90;;;;;;5010960;28;20203;-65
2022/07/08 06:43:14;;;;;;;8.43;1.90;;;16.20;99.90;;;;;;5013977;28;20219;-63
2022/07/08 06:45:43;;;;;;;7.30;1.97;;;16.30;99.90;;;;;;5008326;28;20207;-66
2022/07/08 06:48:09;;;;;;;6.83;1.70;;;16.30;99.90;;;;;;4993990;28;20228;-66
2022/07/08 06:50:37;;;;;;;4.40;1.27;;;16.10;99.90;;;;;;4993647;28;20211;-65
2022/07/08 06:53:03;;;;;;;9.23;1.70;;;16.20;99.90;;;;;;4994566;28;20306;-64
2022/07/08 06:55:30;;;;;;;7.83;1.93;;;16.00;99.90;;;;;;4994094;28;20211;-65
2022/07/08 06:57:57;;;;;;;3.77;1.43;;;16.10;99.90;;;;;;4993889;28;20286;-63
2022/07/08 07:00:23;;;;;;;5.70;1.70;;;16.10;99.90;;;;;;4994010;28;20208;-64
2022/07/08 07:02:52;;;;;;;9.83;2.30;;;16.20;99.90;;;;;;4994077;28;20266;-64
2022/07/08 07:05:19;;;;;;;5.40;2.03;;;16.30;99.90;;;;;;4993939;28;20211;-63
2022/07/08 07:07:46;;;;;;;6.20;2.20;;;16.40;99.90;;;;;;4993445;28;20226;-63
2022/07/08 07:10:13;;;;;;;4.13;1.87;;;16.50;99.90;;;;;;4993766;28;20758;-63
2022/07/08 07:12:40;;;;;;;3.53;1.63;;;16.60;99.90;;;;;;4993954;28;20343;-64
2022/07/08 07:15:07;;;;;;;8.17;1.87;;;16.80;99.90;;;;;;4993820;28;20314;-63
2022/07/08 07:17:34;;;;;;;8.63;1.93;;;16.80;99.90;;;;;;4993107;28;20239;-62
2022/07/08 07:20:03;;;;;;;5.30;1.70;;;16.70;99.90;;;;;;4993581;28;20262;-63
2022/07/08 07:22:29;;;;;;;6.47;2.37;;;16.50;99.90;;;;;;4993955;28;20302;-62
2022/07/08 07:24:56;;;;;;;7.20;2.00;;;16.50;99.90;;;;;;4993512;28;20207;-62
2022/07/08 07:27:23;;;;;;;6.33;2.37;;;16.70;99.90;;;;;;4993228;28;20235;-62
2022/07/08 07:29:49;;;;;;;10.80;2.90;;;16.90;99.90;;;;;;4993325;28;20222;-62
2022/07/08 07:32:16;;;;;;;5.60;2.37;;;17.00;99.90;;;;;;4993501;28;20220;-63
2022/07/08 07:34:43;;;;;;;4.70;2.07;;;17.20;99.90;;;;;;4993242;28;20270;-62
2022/07/08 07:37:11;;;;;;;6.50;2.93;;;17.00;99.90;;;;;;4993097;28;20232;-62
2022/07/08 07:39:38;;;;;;;4.10;2.27;;;17.10;99.90;;;;;;4993340;28;20212;-63
2022/07/08 07:42:05;;;;;;;6.10;2.60;;;17.20;99.90;;;;;;4993076;28;20211;-62
2022/07/08 07:44:32;;;;;;;3.93;1.83;;;17.20;99.90;;;;;;4993274;28;20208;-62
2022/07/08 07:46:58;;;;;;;3.83;2.07;;;16.90;99.90;;;;;;4992647;28;20258;-62
2022/07/08 07:49:25;;;;;;;5.90;2.33;;;16.90;99.90;;;;;;4993117;28;20218;-63
2022/07/08 07:51:52;;;;;;;4.80;2.10;;;16.90;99.90;;;;;;4992844;28;20212;-63
2022/07/08 07:54:19;;;;;;;8.33;2.70;;;17.10;99.90;;;;;;4992983;28;20234;-63
2022/07/08 07:56:46;;;;;;;4.60;2.20;;;17.00;99.90;;;;;;4992626;28;20228;-62
2022/07/08 07:59:13;;;;;;;7.03;2.50;;;17.20;99.90;;;;;;4993029;28;20239;-63
2022/07/08 08:01:39;;;;;;;6.47;2.47;;;17.10;99.90;;;;;;4994126;28;20207;-63
2022/07/08 08:04:06;;;;;;;3.70;2.40;;;17.40;99.90;;;;;;4993850;28;20619;-64
2022/07/08 08:06:33;;;;;;;6.50;2.67;;;17.50;99.90;;;;;;4993774;28;20223;-63
2022/07/08 08:08:59;;;;;;;5.70;2.30;;;17.60;99.90;;;;;;4992609;28;20227;-63
2022/07/08 08:11:27;;;;;;;4.90;2.30;;;17.60;99.90;;;;;;4992554;28;20685;-62
2022/07/08 08:13:54;;;;;;;5.33;2.57;;;17.50;99.90;;;;;;4992253;28;20737;-63
2022/07/08 08:16:21;;;;;;;5.77;2.40;;;17.80;99.90;;;;;;4992787;28;20211;-63
2022/07/08 08:18:47;;;;;;;6.10;2.80;;;18.00;99.90;;;;;;4993152;28;20666;-62
2022/07/08 08:21:16;;;;;;;5.80;2.30;;;18.20;99.90;;;;;;4991836;28;20601;-68
2022/07/08 08:23:42;;;;;;;4.13;2.00;;;18.10;99.90;;;;;;4972977;28;20208;-67
2022/07/08 08:26:09;;;;;;;6.43;2.10;;;18.10;99.90;;;;;;4972451;28;20208;-66
2022/07/08 08:28:38;;;;;;;5.77;1.90;;;18.20;99.90;;;;;;4972884;28;20236;-66
2022/07/08 08:31:05;;;;;;;5.57;1.90;;;18.30;99.90;;;;;;4972708;28;20204;-66
2022/07/08 08:33:31;;;;;;;5.40;1.50;;;18.60;99.90;;;;;;4973170;28;20255;-65
2022/07/08 08:35:58;;;;;;;7.37;2.03;;;18.90;99.90;;;;;;4972589;28;20239;-66
2022/07/08 08:38:25;;;;;;;4.00;1.50;;;18.80;99.90;;;;;;4972928;28;20279;-66
2022/07/08 08:40:57;;;;;;;5.53;1.90;;;18.90;99.90;;;;;;4972923;28;20259;-63
2022/07/08 08:43:24;;;;;;;5.30;1.73;;;18.60;99.90;;;;;;4985371;28;20200;-63
2022/07/08 08:45:53;;;;;;;4.77;1.87;;;18.70;99.90;;;;;;4984969;28;20217;-64
2022/07/08 08:48:23;;;;;;;5.40;2.20;;;18.90;99.90;;;;;;4992443;28;20220;-64
2022/07/08 08:50:56;;;;;;;9.03;2.07;;;18.90;99.90;;;;;;4992431;28;20258;-64
2022/07/08 08:53:28;;;;;;;5.27;1.97;;;18.90;99.90;;;;;;4992138;28;20647;-65
2022/07/08 08:55:55;;;;;;;5.53;1.83;;;18.80;99.90;;;;;;4992622;28;20279;-66
2022/07/08 08:58:22;;;;;;;7.43;2.10;;;18.50;99.90;;;;;;4991861;28;20227;-65
2022/07/08 09:00:49;;;;;;;4.57;1.90;;;18.80;99.90;;;;;;4991913;28;20261;-64
2022/07/08 09:03:17;;;;;;;5.97;1.70;;;18.90;99.90;;;;;;4992200;28;20207;-65
2022/07/08 09:05:44;;;;;;;4.60;1.50;;;19.20;99.90;;;;;;4991962;28;20208;-66
2022/07/08 09:08:10;;;;;;;6.77;1.50;;;19.40;99.90;;;;;;4991826;28;20235;-66
2022/07/08 09:10:37;;;;;;;5.33;1.70;;;19.70;99.90;;;;;;4991599;28;20735;-67
2022/07/08 09:13:07;;;;;;;7.10;1.90;;;19.80;99.90;;;;;;4992227;28;20207;-67
2022/07/08 09:15:35;;;;;;;6.60;1.87;;;19.70;99.90;;;;;;4992789;28;20729;-65
2022/07/08 09:18:04;;;;;;;8.10;2.03;;;19.40;99.90;;;;;;4995993;28;20318;-68
2022/07/08 09:20:43;;;;;;;3.63;1.60;;;19.30;99.90;;;;;;4996258;28;20219;-66
2022/07/08 09:23:12;;;;;;;5.73;1.73;;;19.40;99.90;;;;;;4996491;28;20307;-65
2022/07/08 09:25:39;;;;;;;5.80;2.10;;;19.80;99.90;;;;;;4996103;28;20316;-63
2022/07/08 09:28:06;;;;;;;5.53;1.70;;;19.50;99.90;;;;;;4995557;28;20231;-63
2022/07/08 09:30:33;;;;;;;5.47;1.40;;;19.80;99.90;;;;;;4996009;28;20214;-63
2022/07/08 09:33:01;;;;;;;5.47;1.70;;;20.10;99.90;;;;;;4995806;28;20215;-63
2022/07/08 09:35:33;;;;;;;4.97;1.50;;;20.10;99.90;;;;;;4995995;28;20207;-64
2022/07/08 09:38:04;;;;;;;4.83;1.37;;;20.40;99.90;;;;;;4991389;28;20596;-65
2022/07/08 09:40:30;;;;;;;4.50;1.10;;;20.20;99.90;;;;;;4995605;28;20208;-65
2022/07/08 09:42:58;;;;;;;4.37;1.33;;;20.50;99.90;;;;;;4981223;28;20208;-64
2022/07/08 09:45:32;;;;;;;8.70;1.47;;;20.60;99.90;;;;;;4975836;28;20220;-65
2022/07/08 09:48:03;;;;;;;4.47;1.43;;;20.40;99.90;;;;;;4975869;28;20592;-62
2022/07/08 09:50:35;;;;;;;3.10;1.30;;;20.60;99.90;;;;;;4975345;28;20592;-60
2022/07/08 09:53:12;;;;;;;3.80;1.10;;;20.80;99.90;;;;;;4976182;28;20259;-63
2022/07/08 09:55:39;;;;;;;3.53;1.47;;;21.00;99.90;;;;;;4975575;28;20215;-63
2022/07/08 09:58:06;;;;;;;4.87;1.27;;;21.00;99.90;;;;;;4975184;28;20229;-61
2022/07/08 10:00:33;;;;;;;5.10;1.20;;;21.10;99.90;;;;;;4975531;28;20244;-64
2022/07/08 10:03:02;;;;;;;13.90;3.17;;;21.00;99.90;;;;;;4975857;28;20630;-68
2022/07/08 10:05:29;;;;;;;4.40;1.70;;;21.00;99.90;;;;;;4975467;28;20843;-66
2022/07/08 10:07:56;;;;;;;8.40;2.20;;;21.00;99.90;;;;;;4991644;28;20277;-70
2022/07/08 10:10:25;;;;;;;6.83;2.07;;;21.10;99.90;;;;;;5007535;28;20203;-66
2022/07/08 10:12:53;;;;;;;5.30;1.37;;;21.00;99.90;;;;;;5013892;28;20628;-64
2022/07/08 10:15:21;;;;;;;9.23;1.50;;;21.40;99.90;;;;;;5014914;28;20211;-63
2022/07/08 10:17:50;;;;;;;14.67;3.87;;;21.80;99.90;;;;;;5013948;28;20231;-63
2022/07/08 10:20:19;;;;;;;7.40;1.60;;;22.10;99.90;;;;;;5014209;28;20215;-63
2022/07/08 10:22:48;;;;;;;6.57;1.83;;;22.00;99.90;;;;;;5006102;28;20239;-63
2022/07/08 10:25:17;;;;;;;3.70;1.20;;;21.80;99.90;;;;;;4974980;28;20272;-63
2022/07/08 10:27:46;;;;;;;7.83;2.63;;;21.40;99.90;;;;;;4974427;28;20232;-63
2022/07/08 10:30:13;;;;;;;23.03;6.53;;;21.70;99.90;;;;;;4974963;28;20274;-63
2022/07/08 10:32:40;;;;;;;7.37;1.97;;;21.90;99.90;;;;;;4974928;28;20319;-65
2022/07/08 10:35:09;;;;;;;5.83;1.63;;;22.20;99.90;;;;;;4975108;28;20263;-65
2022/07/08 10:37:56;;;;;;;3.70;1.13;;;21.80;99.90;;;;;;4974533;28;20236;-65
2022/07/08 10:40:49;;;;;;;9.90;2.70;;;21.50;99.90;;;;;;4974761;28;20215;-65
2022/07/08 10:43:26;;;;;;;4.90;1.27;;;21.40;99.90;;;;;;4975134;28;20300;-65
2022/07/08 10:46:04;;;;;;;5.67;2.10;;;21.10;99.90;;;;;;4974501;28;20263;-64
2022/07/08 10:48:50;;;;;;;5.27;2.10;;;21.40;99.90;;;;;;4974806;28;20734;-67
2022/07/08 10:51:44;;;;;;;7.27;2.00;;;22.00;99.90;;;;;;4974510;28;20209;-65
2022/07/08 10:54:24;;;;;;;4.60;1.80;;;21.60;99.90;;;;;;4974802;28;20212;-66
2022/07/08 10:56:53;;;;;;;7.33;1.77;;;21.40;99.90;;;;;;4974546;28;20584;-65
2022/07/08 10:59:22;;;;;;;4.07;1.83;;;21.40;99.90;;;;;;4974335;28;20247;-64
2022/07/08 11:01:53;;;;;;;3.57;1.57;;;21.30;99.90;;;;;;4974537;28;20204;-65
2022/07/08 11:04:21;;;;;;;8.13;2.87;;;21.50;99.90;;;;;;4974438;28;20267;-64
2022/07/08 11:06:48;;;;;;;3.33;1.20;;;21.60;99.90;;;;;;4974191;28;20299;-63
2022/07/08 11:09:17;;;;;;;9.47;1.80;;;21.70;99.90;;;;;;4974540;28;20224;-65
2022/07/08 11:11:46;;;;;;;3.53;1.30;;;22.00;99.90;;;;;;4974503;28;20790;-64
2022/07/08 11:14:13;;;;;;;4.57;1.70;;;22.00;99.90;;;;;;4974264;28;20213;-65
2022/07/08 11:16:41;;;;;;;5.50;1.37;;;21.70;99.90;;;;;;4974170;28;20263;-64
2022/07/08 11:19:08;;;;;;;6.23;1.50;;;21.80;99.90;;;;;;4974155;28;20236;-64
2022/07/08 11:21:35;;;;;;;5.80;1.60;;;21.80;99.90;;;;;;4973994;28;20208;-65
2022/07/08 11:24:02;;;;;;;6.93;1.37;;;22.10;99.90;;;;;;4974389;28;20563;-65
2022/07/08 11:26:29;;;;;;;6.03;1.53;;;22.40;99.90;;;;;;4973851;28;20216;-64
2022/07/08 11:28:56;;;;;;;5.37;1.73;;;22.10;99.90;;;;;;4974165;28;20603;-66
2022/07/08 11:31:26;;;;;;;4.23;1.70;;;22.30;99.90;;;;;;4973658;28;20559;-65
2022/07/08 11:33:54;;;;;;;6.33;1.90;;;22.20;99.90;;;;;;4974055;28;20725;-66
2022/07/08 11:36:21;;;;;;;8.53;2.03;;;22.20;99.90;;;;;;4973724;28;20781;-65
2022/07/08 11:38:50;;;;;;;3.70;1.40;;;22.30;99.90;;;;;;4973358;28;20236;-65
2022/07/08 11:41:20;;;;;;;5.80;1.40;;;22.30;99.90;;;;;;4973789;28;20239;-65
2022/07/08 11:43:48;;;;;;;5.27;1.20;;;21.70;99.90;;;;;;4973662;28;20209;-65
2022/07/08 11:46:19;;;;;;;12.23;1.73;;;21.80;99.90;;;;;;4973379;28;20231;-65
2022/07/08 11:48:46;;;;;;;2.73;1.37;;;22.00;99.90;;;;;;4973752;28;20225;-68
2022/07/08 11:51:18;;;;;;;6.70;1.77;;;22.40;99.90;;;;;;4973687;28;20204;-66
2022/07/08 11:53:45;;;;;;;3.47;1.10;;;22.50;99.90;;;;;;4973852;28;20235;-68
2022/07/08 11:56:13;;;;;;;5.10;1.73;;;22.50;99.90;;;;;;4973913;28;20598;-66
2022/07/08 11:58:39;;;;;;;4.47;1.50;;;22.70;99.90;;;;;;4973363;28;20651;-66
2022/07/08 12:01:06;;;;;;;2.67;1.00;;;22.60;99.90;;;;;;4973283;28;20638;-64
2022/07/08 12:03:34;;;;;;;6.20;1.80;;;22.00;99.90;;;;;;4973840;28;20279;-63
2022/07/08 12:06:02;;;;;;;3.87;1.40;;;22.20;99.90;;;;;;4972977;28;20209;-66
2022/07/08 12:08:32;;;;;;;4.40;1.47;;;22.00;99.90;;;;;;4973634;28;20232;-66
2022/07/08 12:11:15;;;;;;;3.07;1.20;;;22.20;99.90;;;;;;4973000;28;20705;-65
2022/07/08 12:13:43;;;;;;;3.57;1.63;;;22.40;99.90;;;;;;4971605;28;20219;-66
2022/07/08 12:16:09;;;;;;;4.50;2.13;;;22.50;99.90;;;;;;4972691;28;20204;-63
2022/07/08 12:18:36;;;;;;;5.63;1.40;;;22.30;99.90;;;;;;4973314;28;20236;-60
2022/07/08 12:21:17;;;;;;;4.00;1.50;;;22.00;99.90;;;;;;4972890;28;20213;-63
2022/07/08 12:23:46;;;;;;;5.70;2.13;;;22.00;99.90;;;;;;4973294;28;20215;-64
2022/07/08 12:26:13;;;;;;;6.00;1.83;;;22.20;99.90;;;;;;4972724;28;20215;-64
2022/07/08 12:28:39;;;;;;;6.10;1.60;;;22.50;99.90;;;;;;4972525;28;20814;-65
2022/07/08 12:31:06;;;;;;;3.37;1.50;;;22.40;99.90;;;;;;4972991;28;20216;-65
2022/07/08 12:33:33;;;;;;;5.20;1.50;;;22.60;99.90;;;;;;4972605;28;20282;-65
2022/07/08 12:36:01;;;;;;;5.63;1.40;;;22.80;99.90;;;;;;4972600;28;20636;-63
2022/07/08 12:38:27;;;;;;;4.53;1.67;;;23.00;99.90;;;;;;4972212;28;20688;-65
2022/07/08 12:40:55;;;;;;;8.23;1.70;;;23.00;99.90;;;;;;4972894;28;20204;-65
2022/07/08 12:43:31;;;;;;;4.03;1.47;;;23.30;99.90;;;;;;4972806;28;20261;-65
2022/07/08 12:45:58;;;;;;;8.63;1.47;;;23.10;99.90;;;;;;4972884;28;20547;-66
2022/07/08 12:48:25;;;;;;;3.00;1.10;;;23.30;99.90;;;;;;4972747;28;20228;-64
2022/07/08 12:50:52;;;;;;;2.37;1.20;;;23.40;99.90;;;;;;4971967;28;20212;-66
2022/07/08 12:53:19;;;;;;;4.57;1.23;;;23.80;99.90;;;;;;4972459;28;20272;-65